createdAt,value
2018-04-18T00:00:56.535Z,99.90
2018-04-18T00:03:23.282Z,99.90
2018-04-18T00:05:50.438Z,99.90
2018-04-18T00:08:17.183Z,99.90
2018-04-18T00:10:43.931Z,99.90
2018-04-18T00:13:10.884Z,99.90
2018-04-18T00:15:37.624Z,99.90
2018-04-18T00:18:04.577Z,99.90
2018-04-18T00:20:31.426Z,99.90
2018-04-18T00:22:58.172Z,99.90
2018-04-18T00:25:24.925Z,99.90
2018-04-18T00:27:51.663Z,99.90
2018-04-18T00:30:18.412Z,99.90
2018-04-18T00:32:45.157Z,99.90
2018-04-18T00:35:11.902Z,99.90
2018-04-18T00:37:38.957Z,99.90
2018-04-18T00:40:06.318Z,99.90
2018-04-18T00:42:33.474Z,99.90
2018-04-18T00:45:00.331Z,99.90
2018-04-18T00:47:27.147Z,99.90
2018-04-18T00:49:54.631Z,99.90
2018-04-18T00:52:21.377Z,99.90
2018-04-18T00:54:48.128Z,99.90
2018-04-18T00:57:14.873Z,99.90
2018-04-18T00:59:41.617Z,99.90
2018-04-18T01:02:08.672Z,99.90
2018-04-18T01:04:35.417Z,99.90
2018-04-18T01:07:02.238Z,99.90
2018-04-18T01:09:29.729Z,99.90
2018-04-18T01:11:56.475Z,99.90
2018-04-18T01:14:23.255Z,99.90
2018-04-18T01:16:50.070Z,99.90
2018-04-18T01:19:16.817Z,99.90
2018-04-18T01:21:43.973Z,99.90
2018-04-18T01:24:11.131Z,99.90
2018-04-18T01:26:38.182Z,99.90
2018-04-18T01:29:05.032Z,99.90
2018-04-18T01:31:32.083Z,99.90
2018-04-18T01:33:58.731Z,99.90
2018-04-18T01:36:25.579Z,99.90
2018-04-18T01:38:52.687Z,99.90
2018-04-18T01:41:19.374Z,99.90
2018-04-18T01:43:46.403Z,99.90
2018-04-18T01:46:13.991Z,99.90
2018-04-18T01:48:40.839Z,99.90
2018-04-18T01:51:07.895Z,99.90
2018-04-18T01:53:34.640Z,99.90
2018-04-18T01:56:01.389Z,99.90
2018-04-18T01:58:28.952Z,99.90
2018-04-18T02:00:56.518Z,99.90
2018-04-18T02:03:23.576Z,99.90
2018-04-18T02:05:51.237Z,99.90
2018-04-18T02:08:17.984Z,99.90
2018-04-18T02:10:44.842Z,99.90
2018-04-18T02:13:11.681Z,99.90
2018-04-18T02:15:38.511Z,99.90
2018-04-18T02:18:05.993Z,99.90
2018-04-18T02:20:33.101Z,99.90
2018-04-18T02:23:00.002Z,99.90
2018-04-18T02:25:27.137Z,99.90
2018-04-18T02:27:55.023Z,99.90
2018-04-18T02:30:22.076Z,99.90
2018-04-18T02:32:48.925Z,99.90
2018-04-18T02:35:15.978Z,99.90
2018-04-18T02:37:43.004Z,99.90
2018-04-18T02:40:09.783Z,99.90
2018-04-18T02:42:36.524Z,99.90
2018-04-18T02:45:03.270Z,99.90
2018-04-18T02:47:30.014Z,99.90
2018-04-18T02:49:56.862Z,99.90
2018-04-18T02:52:23.583Z,99.90
2018-04-18T02:54:51.378Z,99.90
2018-04-18T02:57:18.332Z,99.90
2018-04-18T02:59:45.590Z,99.90
2018-04-18T03:02:12.337Z,99.90
2018-04-18T03:04:39.289Z,99.90
2018-04-18T03:07:06.035Z,99.90
2018-04-18T03:09:33.083Z,99.90
2018-04-18T03:12:00.554Z,99.90
2018-04-18T03:14:27.292Z,99.90
2018-04-18T03:16:54.359Z,99.90
2018-04-18T03:19:21.400Z,99.90
2018-04-18T03:21:49.173Z,99.90
2018-04-18T03:24:15.916Z,99.90
2018-04-18T03:26:42.743Z,99.90
2018-04-18T03:29:09.941Z,99.90
2018-04-18T03:31:37.040Z,99.90
2018-04-18T03:34:03.927Z,99.90
2018-04-18T03:36:30.654Z,99.90
2018-04-18T03:38:58.110Z,99.90
2018-04-18T03:41:24.880Z,99.90
2018-04-18T03:43:51.628Z,99.90
2018-04-18T03:46:19.092Z,99.90
2018-04-18T03:48:45.837Z,99.90
2018-04-18T03:51:12.582Z,99.90
2018-04-18T03:53:39.532Z,99.90
2018-04-18T03:56:06.280Z,99.90
2018-04-18T03:58:33.026Z,99.90
2018-04-18T04:00:59.977Z,99.90
2018-04-18T04:03:27.133Z,99.90
2018-04-18T04:05:54.799Z,99.90
2018-04-18T04:08:21.547Z,99.90
2018-04-18T04:10:48.320Z,99.90
2018-04-18T04:13:15.145Z,99.90
2018-04-18T04:15:42.296Z,99.90
2018-04-18T04:18:21.324Z,99.90
2018-04-18T04:21:00.244Z,99.90
2018-04-18T04:23:39.583Z,99.90
2018-04-18T04:26:06.345Z,99.90
2018-04-18T04:28:34.826Z,99.90
2018-04-18T04:31:01.865Z,99.90
2018-04-18T04:33:28.617Z,99.90
2018-04-18T04:36:02.625Z,99.90
2018-04-18T04:38:29.473Z,99.90
2018-04-18T04:40:56.527Z,99.90
2018-04-18T04:43:24.094Z,99.90
2018-04-18T04:45:50.837Z,99.90
2018-04-18T04:48:17.684Z,99.90
2018-04-18T04:50:44.715Z,99.90
2018-04-18T04:53:12.200Z,99.90
2018-04-18T04:55:38.929Z,99.90
2018-04-18T04:58:06.619Z,99.90
2018-04-18T05:00:33.461Z,99.90
2018-04-18T05:03:00.208Z,99.90
2018-04-18T05:05:26.959Z,99.90
2018-04-18T05:07:53.808Z,99.90
2018-04-18T05:10:20.709Z,99.90
2018-04-18T05:12:47.502Z,99.90
2018-04-18T05:15:14.557Z,99.90
2018-04-18T05:17:41.407Z,99.90
2018-04-18T05:20:09.074Z,99.90
2018-04-18T05:22:35.822Z,99.90
2018-04-18T05:25:02.771Z,99.90
2018-04-18T05:27:31.153Z,99.90
2018-04-18T05:29:57.999Z,99.90
2018-04-18T05:32:24.749Z,99.90
2018-04-18T05:34:51.421Z,99.90
2018-04-18T05:37:18.115Z,99.90
2018-04-18T05:39:45.806Z,99.90
2018-04-18T05:42:13.928Z,99.90
2018-04-18T05:44:45.369Z,99.90
2018-04-18T05:47:16.691Z,99.90
2018-04-18T05:49:44.459Z,99.90
2018-04-18T05:52:11.206Z,99.90
2018-04-18T05:54:38.048Z,99.90
2018-04-18T05:57:04.798Z,99.90
2018-04-18T05:59:32.060Z,99.90
2018-04-18T06:01:59.005Z,99.90
2018-04-18T06:04:26.267Z,99.90
2018-04-18T06:06:53.012Z,99.90
2018-04-18T06:09:20.049Z,99.90
2018-04-18T06:11:46.792Z,99.90
2018-04-18T06:14:14.683Z,99.90
2018-04-18T06:16:41.632Z,99.90
2018-04-18T06:19:08.408Z,99.90
2018-04-18T06:21:35.108Z,99.90
2018-04-18T06:24:01.852Z,99.90
2018-04-18T06:26:30.561Z,99.90
2018-04-18T06:28:57.386Z,99.90
2018-04-18T06:31:24.860Z,99.90
2018-04-18T06:33:52.337Z,99.90
2018-04-18T06:36:19.270Z,99.90
2018-04-18T06:38:46.854Z,99.90
2018-04-18T06:41:13.707Z,99.90
2018-04-18T06:43:40.548Z,99.90
2018-04-18T06:46:07.307Z,99.90
2018-04-18T06:48:33.968Z,99.90
2018-04-18T06:51:00.679Z,99.90
2018-04-18T06:53:27.841Z,99.90
2018-04-18T06:55:54.527Z,99.90
2018-04-18T06:58:21.335Z,99.90
2018-04-18T07:00:49.079Z,99.90
2018-04-18T07:03:15.828Z,99.90
2018-04-18T07:05:43.706Z,99.90
2018-04-18T07:08:11.187Z,99.90
2018-04-18T07:10:38.238Z,99.90
2018-04-18T07:13:04.986Z,99.90
2018-04-18T07:15:31.680Z,99.90
2018-04-18T07:17:58.581Z,99.90
2018-04-18T07:20:25.324Z,99.90
2018-04-18T07:22:52.072Z,99.90
2018-04-18T07:25:18.752Z,99.90
2018-04-18T07:27:45.562Z,99.90
2018-04-18T07:30:12.412Z,99.90
2018-04-18T07:32:39.262Z,99.90
2018-04-18T07:35:06.115Z,99.90
2018-04-18T07:37:32.960Z,99.90
2018-04-18T07:40:06.708Z,99.90
2018-04-18T07:42:33.821Z,99.90
2018-04-18T07:45:00.670Z,99.90
2018-04-18T07:47:27.517Z,99.90
2018-04-18T07:49:54.272Z,99.90
2018-04-18T07:52:21.828Z,99.90
2018-04-18T07:54:48.880Z,99.90
2018-04-18T07:57:15.605Z,99.90
2018-04-18T07:59:43.031Z,99.90
2018-04-18T08:02:10.554Z,99.90
2018-04-18T08:04:37.201Z,99.90
2018-04-18T08:07:04.661Z,99.90
2018-04-18T08:09:32.329Z,99.90
2018-04-18T08:11:59.584Z,99.90
2018-04-18T08:14:26.434Z,99.90
2018-04-18T08:16:53.180Z,99.90
2018-04-18T08:19:20.030Z,99.90
2018-04-18T08:21:47.531Z,99.90
2018-04-18T08:24:14.645Z,99.90
2018-04-18T08:26:41.394Z,99.90
2018-04-18T08:29:08.139Z,99.90
2018-04-18T08:31:34.884Z,99.90
2018-04-18T08:34:01.747Z,99.90
2018-04-18T08:36:28.480Z,99.90
2018-04-18T08:38:55.225Z,99.90
2018-04-18T08:41:22.076Z,99.90
2018-04-18T08:43:48.820Z,99.90
2018-04-18T08:46:15.568Z,99.90
2018-04-18T08:48:43.212Z,99.90
2018-04-18T08:51:10.695Z,99.90
2018-04-18T08:53:37.548Z,99.90
2018-04-18T08:56:04.801Z,99.90
2018-04-18T08:58:31.548Z,99.90
2018-04-18T09:00:58.293Z,99.90
2018-04-18T09:03:25.146Z,99.90
2018-04-18T09:05:51.996Z,99.90
2018-04-18T09:08:18.842Z,99.90
2018-04-18T09:10:45.587Z,99.90
2018-04-18T09:13:12.743Z,99.90
2018-04-18T09:15:39.695Z,99.90
2018-04-18T09:18:06.647Z,99.90
2018-04-18T09:20:33.494Z,99.90
2018-04-18T09:23:00.369Z,99.90
2018-04-18T09:25:27.703Z,99.90
2018-04-18T09:27:54.856Z,99.90
2018-04-18T09:30:22.830Z,99.90
2018-04-18T09:32:49.576Z,99.90
2018-04-18T09:35:17.039Z,99.90
2018-04-18T09:37:45.015Z,99.90
2018-04-18T09:40:11.760Z,99.90
2018-04-18T09:42:38.403Z,99.90
2018-04-18T09:45:05.197Z,99.90
2018-04-18T09:47:32.311Z,99.90
2018-04-18T09:49:59.155Z,99.90
2018-04-18T09:52:26.107Z,99.90
2018-04-18T09:54:52.764Z,99.90
2018-04-18T09:57:19.906Z,99.90
2018-04-18T09:59:46.659Z,99.90
2018-04-18T10:02:17.900Z,99.90
2018-04-18T10:04:45.025Z,99.90
2018-04-18T10:07:12.525Z,99.90
2018-04-18T10:09:39.266Z,99.90
2018-04-18T10:12:06.631Z,99.90
2018-04-18T10:14:33.481Z,99.90
2018-04-18T10:17:00.219Z,99.90
2018-04-18T10:19:27.175Z,99.90
2018-04-18T10:21:54.019Z,99.90
2018-04-18T10:24:21.995Z,99.90
2018-04-18T10:26:49.046Z,99.90
2018-04-18T10:29:15.794Z,99.90
2018-04-18T10:31:42.849Z,99.90
2018-04-18T10:34:09.525Z,99.90
2018-04-18T10:36:37.161Z,99.90
2018-04-18T10:39:04.577Z,99.90
2018-04-18T10:41:31.470Z,99.90
2018-04-18T10:43:58.316Z,99.90
2018-04-18T10:46:25.065Z,99.90
2018-04-18T10:48:51.813Z,99.90
2018-04-18T10:51:18.765Z,99.90
2018-04-18T10:53:45.510Z,99.90
2018-04-18T10:56:12.359Z,99.90
2018-04-18T10:58:39.048Z,99.90
2018-04-18T11:01:06.568Z,99.90
2018-04-18T11:03:33.231Z,99.90
2018-04-18T11:06:00.981Z,99.90
2018-04-18T11:08:27.732Z,99.90
2018-04-18T11:10:54.483Z,99.90
2018-04-18T11:13:21.205Z,99.90
2018-04-18T11:15:49.093Z,99.90
2018-04-18T11:18:16.142Z,99.90
2018-04-18T11:20:42.887Z,99.90
2018-04-18T11:23:09.637Z,99.90
2018-04-18T11:25:36.487Z,99.90
2018-04-18T11:28:03.413Z,99.90
2018-04-18T11:30:30.180Z,99.90
2018-04-18T11:32:57.035Z,99.90
2018-04-18T11:35:23.779Z,99.90
2018-04-18T11:37:50.523Z,99.90
2018-04-18T11:40:17.269Z,99.90
2018-04-18T11:42:44.528Z,99.90
2018-04-18T11:45:11.173Z,99.90
2018-04-18T11:47:37.898Z,99.90
2018-04-18T11:50:05.688Z,99.90
2018-04-18T11:52:32.511Z,99.90
2018-04-18T11:55:00.279Z,99.90
2018-04-18T11:57:29.515Z,99.90
2018-04-18T11:59:58.095Z,99.90
2018-04-18T12:02:25.151Z,99.90
2018-04-18T12:04:51.895Z,99.90
2018-04-18T12:07:18.947Z,99.90
2018-04-18T12:09:47.423Z,99.90
2018-04-18T12:12:17.663Z,99.90
2018-04-18T12:14:46.774Z,99.90
2018-04-18T12:17:15.453Z,99.90
2018-04-18T12:19:43.791Z,99.90
2018-04-18T12:22:11.587Z,99.90
2018-04-18T12:24:39.583Z,99.90
2018-04-18T12:27:06.631Z,99.90
2018-04-18T12:29:33.376Z,99.90
2018-04-18T12:32:00.123Z,99.90
2018-04-18T12:34:26.868Z,99.90
2018-04-18T12:36:53.503Z,99.90
2018-04-18T12:39:20.977Z,99.90
2018-04-18T12:41:47.723Z,99.90
2018-04-18T12:44:14.472Z,99.90
2018-04-18T12:46:41.323Z,99.90
2018-04-18T12:49:08.168Z,99.90
2018-04-18T12:51:34.910Z,99.90
2018-04-18T12:54:02.168Z,99.90
2018-04-18T12:56:30.768Z,99.90
2018-04-18T12:59:00.381Z,99.90
2018-04-18T13:01:29.074Z,99.90
2018-04-18T13:03:59.125Z,99.90
2018-04-18T13:06:27.293Z,99.90
2018-04-18T13:08:54.110Z,99.90
2018-04-18T13:11:20.829Z,99.90
2018-04-18T13:13:48.316Z,99.90
2018-04-18T13:16:15.828Z,99.90
2018-04-18T13:18:43.344Z,99.90
2018-04-18T13:21:10.093Z,99.90
2018-04-18T13:23:37.042Z,99.50
2018-04-18T13:26:03.891Z,99.20
2018-04-18T13:28:30.740Z,98.70
2018-04-18T13:30:57.829Z,99.90
2018-04-18T13:33:31.600Z,98.70
2018-04-18T13:35:58.752Z,98.90
2018-04-18T13:38:25.605Z,99.40
2018-04-18T13:40:52.347Z,98.30
2018-04-18T13:43:19.097Z,96.30
2018-04-18T13:45:46.151Z,95.80
2018-04-18T13:48:12.999Z,94.80
2018-04-18T13:50:39.747Z,94.50
2018-04-18T13:53:06.466Z,96.60
2018-04-18T13:55:33.953Z,95.80
2018-04-18T13:58:00.907Z,95.80
2018-04-18T14:00:27.865Z,96.20
2018-04-18T14:02:54.808Z,95.30
2018-04-18T14:05:21.551Z,95.70
2018-04-18T14:07:48.323Z,95.50
2018-04-18T14:10:15.355Z,94.90
2018-04-18T14:12:42.150Z,95.80
2018-04-18T14:15:08.829Z,95.50
2018-04-18T14:17:36.308Z,94.90
2018-04-18T14:20:03.259Z,94.90
2018-04-18T14:22:30.002Z,94.20
2018-04-18T14:24:56.856Z,94.30
2018-04-18T14:27:23.599Z,93.40
2018-04-18T14:29:57.408Z,94.00
2018-04-18T14:32:24.153Z,93.40
2018-04-18T14:34:50.899Z,93.20
2018-04-18T14:37:17.648Z,92.70
2018-04-18T14:39:44.393Z,92.80
2018-04-18T14:42:11.116Z,93.20
2018-04-18T14:44:38.601Z,93.70
2018-04-18T14:47:05.450Z,93.70
2018-04-18T14:49:32.199Z,93.20
2018-04-18T14:51:59.839Z,92.80
2018-04-18T14:54:27.531Z,93.00
2018-04-18T14:56:54.284Z,93.00
2018-04-18T14:59:21.097Z,92.80
2018-04-18T15:01:48.384Z,92.80
2018-04-18T15:04:15.228Z,92.90
2018-04-18T15:06:41.975Z,92.90
2018-04-18T15:09:08.725Z,92.60
2018-04-18T15:11:35.573Z,92.50
2018-04-18T15:14:02.726Z,92.50
2018-04-18T15:16:29.555Z,92.50
2018-04-18T15:18:57.374Z,92.50
2018-04-18T15:21:24.478Z,92.50
2018-04-18T15:23:51.974Z,92.20
2018-04-18T15:26:20.347Z,92.20
2018-04-18T15:28:49.043Z,92.30
2018-04-18T15:31:19.749Z,92.10
2018-04-18T15:33:49.559Z,91.70
2018-04-18T15:36:19.415Z,91.20
2018-04-18T15:38:50.129Z,91.10
2018-04-18T15:41:19.891Z,91.50
2018-04-18T15:43:48.794Z,91.40
2018-04-18T15:46:18.123Z,91.50
2018-04-18T15:48:50.393Z,91.60
2018-04-18T15:51:20.084Z,91.30
2018-04-18T15:53:49.956Z,91.40
2018-04-18T15:56:21.893Z,91.80
2018-04-18T15:58:50.977Z,91.30
2018-04-18T16:01:20.165Z,91.80
2018-04-18T16:03:50.112Z,91.30
2018-04-18T16:06:20.269Z,91.30
2018-04-18T16:08:51.512Z,91.30
2018-04-18T16:11:21.258Z,91.30
2018-04-18T16:13:50.986Z,91.20
2018-04-18T16:16:21.457Z,90.90
2018-04-18T16:18:49.460Z,91.20
2018-04-18T16:21:23.209Z,91.20
2018-04-18T16:23:55.820Z,90.90
2018-04-18T16:26:28.164Z,90.70
2018-04-18T16:29:00.947Z,90.70
2018-04-18T16:31:31.745Z,91.10
2018-04-18T16:34:02.635Z,91.10
2018-04-18T16:36:33.746Z,91.40
2018-04-18T16:39:02.400Z,90.70
2018-04-18T16:41:31.552Z,90.60
2018-04-18T16:44:02.162Z,90.50
2018-04-18T16:46:34.011Z,90.60
2018-04-18T16:49:04.555Z,90.00
2018-04-18T16:51:33.115Z,90.20
2018-04-18T16:54:02.884Z,90.50
2018-04-18T16:56:33.100Z,90.50
2018-04-18T16:59:02.982Z,90.20
2018-04-18T17:01:36.316Z,90.00
2018-04-18T17:04:05.022Z,90.20
2018-04-18T17:06:35.711Z,89.70
2018-04-18T17:09:06.412Z,89.20
2018-04-18T17:11:33.739Z,90.00
2018-04-18T17:14:00.615Z,90.60
2018-04-18T17:16:27.308Z,90.70
2018-04-18T17:18:54.057Z,90.60
2018-04-18T17:21:21.003Z,90.90
2018-04-18T17:23:47.726Z,91.30
2018-04-18T17:26:15.214Z,92.20
2018-04-18T17:28:41.960Z,92.20
2018-04-18T17:31:09.323Z,92.60
2018-04-18T17:33:36.375Z,93.00
2018-04-18T17:36:03.326Z,93.20
2018-04-18T17:38:30.378Z,93.80
2018-04-18T17:40:57.238Z,94.30
2018-04-18T17:43:23.973Z,94.60
2018-04-18T17:45:50.720Z,94.90
2018-04-18T17:48:17.375Z,95.30
2018-04-18T17:50:44.114Z,96.10
2018-04-18T17:53:11.060Z,96.40
2018-04-18T17:55:39.579Z,96.60
2018-04-18T17:58:06.701Z,97.20
2018-04-18T18:00:34.071Z,97.60
2018-04-18T18:03:00.909Z,98.50
2018-04-18T18:05:27.655Z,98.80
2018-04-18T18:07:56.385Z,99.30
2018-04-18T18:10:23.710Z,99.80
2018-04-18T18:12:50.660Z,99.90
2018-04-18T18:15:17.671Z,99.90
2018-04-18T18:17:44.459Z,99.90
2018-04-18T18:20:11.510Z,99.90
2018-04-18T18:22:38.361Z,99.90
2018-04-18T18:25:05.411Z,99.90
2018-04-18T18:27:32.161Z,99.90
2018-04-18T18:29:58.905Z,99.90
2018-04-18T18:32:25.653Z,99.90
2018-04-18T18:34:52.399Z,99.90
2018-04-18T18:37:19.144Z,99.90
2018-04-18T18:39:45.994Z,99.90
2018-04-18T18:42:12.685Z,99.90
2018-04-18T18:44:40.304Z,99.90
2018-04-18T18:47:07.155Z,99.90
2018-04-18T18:49:33.898Z,99.90
2018-04-18T18:52:00.953Z,99.90
2018-04-18T18:54:28.007Z,99.90
2018-04-18T18:56:55.041Z,99.90
2018-04-18T18:59:22.114Z,99.90
2018-04-18T19:01:50.191Z,99.90
2018-04-18T19:04:17.241Z,99.90
2018-04-18T19:06:44.092Z,99.90
2018-04-18T19:09:11.021Z,99.90
2018-04-18T19:11:38.508Z,99.90
2018-04-18T19:14:05.355Z,99.90
2018-04-18T19:16:32.385Z,99.90
2018-04-18T19:19:00.996Z,99.90
2018-04-18T19:21:28.048Z,99.90
2018-04-18T19:23:55.001Z,99.90
2018-04-18T19:26:22.026Z,99.90
2018-04-18T19:28:49.515Z,99.90
2018-04-18T19:31:16.339Z,99.90
2018-04-18T19:33:43.829Z,99.90
2018-04-18T19:36:10.574Z,99.90
2018-04-18T19:38:37.524Z,99.90
2018-04-18T19:41:04.276Z,99.90
2018-04-18T19:43:31.325Z,99.90
2018-04-18T19:45:58.274Z,99.90
2018-04-18T19:48:25.126Z,99.90
2018-04-18T19:50:51.916Z,99.90
2018-04-18T19:53:18.823Z,99.90
2018-04-18T19:55:45.672Z,99.90
2018-04-18T19:58:12.723Z,99.90
2018-04-18T20:00:39.569Z,99.90
2018-04-18T20:03:06.321Z,99.90
2018-04-18T20:05:36.140Z,99.90
2018-04-18T20:08:04.288Z,99.90
2018-04-18T20:10:32.081Z,99.90
2018-04-18T20:12:58.826Z,99.90
2018-04-18T20:15:25.550Z,99.90
2018-04-18T20:17:53.016Z,99.90
2018-04-18T20:20:20.703Z,99.90
2018-04-18T20:22:47.755Z,99.90
2018-04-18T20:25:14.586Z,99.90
2018-04-18T20:27:42.297Z,99.90
2018-04-18T20:30:09.942Z,99.90
2018-04-18T20:32:39.305Z,99.90
2018-04-18T20:35:07.526Z,99.90
2018-04-18T20:37:35.720Z,99.90
2018-04-18T20:40:03.989Z,99.90
2018-04-18T20:42:30.707Z,99.90
2018-04-18T20:44:58.012Z,99.90
2018-04-18T20:47:25.352Z,99.90
2018-04-18T20:49:52.014Z,99.90
2018-04-18T20:52:18.744Z,99.90
2018-04-18T20:54:46.612Z,99.90
2018-04-18T20:57:13.872Z,99.90
2018-04-18T20:59:40.717Z,99.90
2018-04-18T21:02:08.181Z,99.90
2018-04-18T21:04:35.341Z,99.90
2018-04-18T21:07:03.805Z,99.90
2018-04-18T21:09:31.834Z,99.90
2018-04-18T21:12:00.209Z,99.90
2018-04-18T21:14:27.949Z,99.90
2018-04-18T21:16:54.805Z,99.90
2018-04-18T21:19:21.971Z,99.90
2018-04-18T21:21:48.783Z,99.90
2018-04-18T21:24:16.678Z,99.90
2018-04-18T21:26:43.499Z,99.90
2018-04-18T21:29:11.590Z,99.90
2018-04-18T21:31:38.554Z,99.90
2018-04-18T21:34:05.300Z,99.90
2018-04-18T21:36:35.147Z,99.90
2018-04-18T21:39:02.175Z,99.90
2018-04-18T21:41:29.328Z,99.90
2018-04-18T21:43:56.070Z,99.90
2018-04-18T21:46:22.815Z,99.90
2018-04-18T21:48:50.688Z,99.90
2018-04-18T21:51:18.149Z,99.90
2018-04-18T21:53:44.896Z,99.90
2018-04-18T21:56:11.642Z,99.90
2018-04-18T21:58:38.388Z,99.90
2018-04-18T22:01:05.340Z,99.90
2018-04-18T22:03:32.188Z,99.90
2018-04-18T22:05:59.550Z,99.90
2018-04-18T22:08:27.218Z,99.90
2018-04-18T22:10:54.269Z,99.90
2018-04-18T22:13:21.942Z,99.90
2018-04-18T22:15:51.039Z,99.90
2018-04-18T22:18:18.300Z,99.90
2018-04-18T22:20:45.038Z,99.90
2018-04-18T22:23:11.787Z,99.90
2018-04-18T22:25:39.063Z,99.90
2018-04-18T22:28:05.891Z,99.90
2018-04-18T22:30:35.616Z,99.90
2018-04-18T22:33:02.864Z,99.90
2018-04-18T22:35:29.713Z,99.90
2018-04-18T22:37:56.563Z,99.90
2018-04-18T22:40:24.635Z,99.90
2018-04-18T22:42:53.329Z,99.90
2018-04-18T22:45:22.120Z,99.90
2018-04-18T22:47:50.708Z,99.90
2018-04-18T22:50:19.068Z,99.90
2018-04-18T22:52:47.483Z,99.90
2018-04-18T22:55:17.103Z,99.90
2018-04-18T22:57:45.576Z,99.90
2018-04-18T23:00:22.250Z,99.90
2018-04-18T23:02:49.315Z,99.90
2018-04-18T23:05:18.561Z,99.90
2018-04-18T23:07:47.092Z,99.90
2018-04-18T23:10:13.839Z,99.90
2018-04-18T23:12:40.584Z,99.90
2018-04-18T23:15:07.330Z,99.90
2018-04-18T23:17:35.440Z,99.90
2018-04-18T23:20:03.401Z,99.90
2018-04-18T23:22:34.887Z,99.90
2018-04-18T23:25:04.542Z,99.90
2018-04-18T23:27:32.601Z,99.90
2018-04-18T23:30:00.910Z,99.90
2018-04-18T23:32:31.341Z,99.90
2018-04-18T23:35:00.236Z,99.90
2018-04-18T23:37:29.345Z,99.90
2018-04-18T23:40:00.167Z,99.90
2018-04-18T23:42:30.281Z,99.90
2018-04-18T23:44:59.499Z,99.90
2018-04-18T23:47:26.755Z,99.90
2018-04-18T23:49:53.602Z,99.90
2018-04-18T23:52:20.349Z,99.90
2018-04-18T23:54:47.610Z,99.90
2018-04-18T23:57:14.868Z,99.90
2018-04-18T23:59:41.724Z,99.90
